Time;durP1;ratioP1;P1;durP2;ratioP2;P2;SDS_P1;SDS_P2;PMS_P1;PMS_P2;Temp;Humidity;BMP_temperature;BMP_pressure;BME280_temperature;BME280_humidity;BME280_pressure;Samples;Min_cycle;Max_cycle;Signal;HPM_P1;HPM_P2
2021/12/15 00:00:00;;;;;;;28.45;13.63;;;;;;;-141.50;100.00;63355.56;4955206;29;20047;-79
2021/12/15 00:02:28;;;;;;;32.40;13.60;;;;;;;-141.50;100.00;63355.56;4948901;29;20059;-79
2021/12/15 00:04:56;;;;;;;29.00;13.82;;;;;;;-141.50;100.00;63355.56;4948645;29;20532;-80
2021/12/15 00:07:25;;;;;;;29.60;13.18;;;;;;;-141.50;100.00;63355.56;4942469;29;20070;-80
2021/12/15 00:09:52;;;;;;;31.45;13.45;;;;;;;-141.50;100.00;63355.56;4943101;29;20070;-81
2021/12/15 00:12:20;;;;;;;31.23;13.85;;;;;;;-141.50;100.00;63355.56;4943122;29;20070;-81
2021/12/15 00:14:47;;;;;;;31.67;14.07;;;;;;;-141.50;100.00;63355.56;4946987;29;20059;-80
2021/12/15 00:17:15;;;;;;;28.40;12.95;;;;;;;-141.50;100.00;63355.56;4951063;28;20544;-80
2021/12/15 00:19:42;;;;;;;27.92;13.40;;;;;;;-141.50;100.00;63355.56;4934426;29;20054;-81
2021/12/15 00:22:09;;;;;;;29.67;13.65;;;;;;;-141.50;100.00;63355.56;4925035;29;20060;-80
2021/12/15 00:24:36;;;;;;;29.10;13.52;;;;;;;-141.50;100.00;63355.56;4928064;29;20051;-81
2021/12/15 00:27:03;;;;;;;29.90;14.07;;;;;;;-141.50;100.00;63355.56;4928926;29;20060;-81
2021/12/15 00:29:30;;;;;;;27.45;13.38;;;;;;;-141.50;100.00;63355.56;4928936;29;20107;-80
2021/12/15 00:31:58;;;;;;;28.83;13.63;;;;;;;-141.50;100.00;63355.56;4947944;29;20120;-80
2021/12/15 00:34:24;;;;;;;28.90;13.50;;;;;;;-141.50;100.00;63355.56;4931666;29;20505;-79
2021/12/15 00:36:51;;;;;;;29.42;13.38;;;;;;;-141.50;100.00;63355.56;4928317;29;20521;-81
2021/12/15 00:39:21;;;;;;;31.77;13.15;;;;;;;-141.50;100.00;63355.56;4927301;29;20052;-80
2021/12/15 00:41:48;;;;;;;28.50;12.38;;;;;;;-141.50;100.00;63355.56;4926614;29;20082;-80
2021/12/15 00:44:15;;;;;;;28.02;13.55;;;;;;;-141.50;100.00;63355.56;4927032;29;20055;-80
2021/12/15 00:46:43;;;;;;;27.55;12.60;;;;;;;-141.50;100.00;63355.56;4928413;29;20695;-81
2021/12/15 00:49:11;;;;;;;24.85;12.23;;;;;;;-141.50;100.00;63355.56;4929758;29;20056;-79
2021/12/15 00:51:39;;;;;;;27.42;12.40;;;;;;;-141.50;100.00;63355.56;4931541;29;20084;-81
2021/12/15 00:54:07;;;;;;;27.08;12.25;;;;;;;-141.50;100.00;63355.56;4931817;29;20084;-82
2021/12/15 00:56:34;;;;;;;23.08;11.52;;;;;;;-141.50;100.00;63355.56;4934787;29;20062;-78
2021/12/15 00:59:04;;;;;;;26.75;12.30;;;;;;;-141.50;100.00;63355.56;4952384;29;20100;-78
2021/12/15 01:01:32;;;;;;;25.38;12.68;;;;;;;-141.50;100.00;63355.56;4922847;29;20056;-81
2021/12/15 01:03:59;;;;;;;25.77;11.52;;;;;;;-141.50;100.00;63355.56;4928312;29;20462;-80
2021/12/15 01:06:28;;;;;;;25.83;11.75;;;;;;;-141.50;100.00;63355.56;4951585;29;20055;-79
2021/12/15 01:09:01;;;;;;;22.90;11.45;;;;;;;-141.50;100.00;63355.56;4939056;29;20044;-82
2021/12/15 01:12:04;;;;;;;26.83;11.57;;;;;;;-141.50;100.00;63355.56;4938994;29;20056;-79
2021/12/15 01:19:53;;;;;;;21.45;10.90;;;;;;;-141.50;100.00;63355.56;4934026;29;20088;-81
2021/12/15 01:22:31;;;;;;;22.55;10.38;;;;;;;-141.50;100.00;63355.56;4934256;29;20084;-80
2021/12/15 01:25:19;;;;;;;20.40;10.27;;;;;;;-141.50;100.00;63355.56;4935289;29;20047;-81
2021/12/15 01:27:47;;;;;;;21.02;10.60;;;;;;;-141.50;100.00;63355.56;4933405;29;20056;-80
2021/12/15 01:30:17;;;;;;;21.55;10.20;;;;;;;-141.50;100.00;63355.56;4934260;29;20079;-81
2021/12/15 01:32:45;;;;;;;22.25;10.57;;;;;;;-141.50;100.00;63355.56;4934662;29;20278;-80
2021/12/15 01:35:12;;;;;;;22.85;11.32;;;;;;;-141.50;100.00;63355.56;4949382;29;20048;-80
2021/12/15 01:37:40;;;;;;;22.38;11.57;;;;;;;-141.50;100.00;63355.56;4929497;29;20052;-82
2021/12/15 01:40:15;;;;;;;22.88;10.77;;;;;;;-141.50;100.00;63355.56;4930844;29;20076;-83
2021/12/15 01:42:41;;;;;;;23.43;10.47;;;;;;;-141.50;100.00;63355.56;4926204;29;20056;-80
2021/12/15 01:48:00;;;;;;;19.42;10.07;;;;;;;-141.50;100.00;63355.56;4938683;29;20111;-79
2021/12/15 01:50:27;;;;;;;20.40;10.02;;;;;;;-141.50;100.00;63355.56;4938328;29;20306;-78
2021/12/15 01:52:54;;;;;;;20.13;10.85;;;;;;;-141.50;100.00;63355.56;4954338;29;20234;-80
2021/12/15 01:55:21;;;;;;;19.85;10.23;;;;;;;-141.50;100.00;63355.56;4955308;29;20063;-80
2021/12/15 01:57:48;;;;;;;18.77;9.48;;;;;;;-141.50;100.00;63355.56;4954913;29;20075;-79
2021/12/15 02:00:30;;;;;;;18.92;9.68;;;;;;;-141.50;100.00;63355.56;4953268;29;20043;-82
2021/12/15 02:02:57;;;;;;;20.27;10.18;;;;;;;-141.50;100.00;63355.56;4953239;29;20071;-81
2021/12/15 02:05:26;;;;;;;17.17;9.32;;;;;;;-141.50;100.00;63355.56;4951681;29;20051;-82
2021/12/15 02:07:53;;;;;;;19.65;9.85;;;;;;;-141.50;100.00;63355.56;4952250;29;20056;-80
2021/12/15 02:10:24;;;;;;;18.80;9.98;;;;;;;-141.50;100.00;63355.56;4950293;29;20048;-81
2021/12/15 02:12:57;;;;;;;19.92;10.75;;;;;;;-141.50;100.00;63355.56;4952118;29;20044;-80
2021/12/15 02:15:28;;;;;;;19.67;10.10;;;;;;;-141.50;100.00;63355.56;4951586;29;20165;-79
2021/12/15 02:17:56;;;;;;;21.38;11.20;;;;;;;-141.50;100.00;63355.56;4952971;29;20047;-80
2021/12/15 02:20:45;;;;;;;19.27;11.35;;;;;;;-141.50;100.00;63355.56;4955347;29;20079;-79
2021/12/15 02:23:16;;;;;;;19.95;10.30;;;;;;;-141.50;100.00;63355.56;4969022;29;20051;-79
2021/12/15 02:25:44;;;;;;;23.30;11.02;;;;;;;-141.50;100.00;63355.56;4941491;29;20110;-79
2021/12/15 02:28:11;;;;;;;22.63;10.48;;;;;;;-141.50;100.00;63355.56;4945753;29;20055;-80
2021/12/15 02:30:52;;;;;;;20.10;10.70;;;;;;;-141.50;100.00;63355.56;4940386;29;20040;-80
2021/12/15 02:33:42;;;;;;;20.77;10.52;;;;;;;-141.50;100.00;63355.56;4942509;29;20052;-81
2021/12/15 02:38:54;;;;;;;22.75;10.98;;;;;;;-141.50;100.00;63355.56;4948597;29;20061;-80
2021/12/15 02:41:23;;;;;;;22.15;10.88;;;;;;;-141.50;100.00;63355.56;4948352;29;20055;-80
2021/12/15 02:43:53;;;;;;;18.35;10.80;;;;;;;-141.50;100.00;63355.56;4962343;28;20047;-81
2021/12/15 02:46:20;;;;;;;19.08;10.65;;;;;;;-141.50;100.00;63355.56;4964406;28;20137;-80
2021/12/15 02:48:49;;;;;;;23.17;10.77;;;;;;;-141.50;100.00;63355.56;4951358;29;20087;-80
2021/12/15 02:51:17;;;;;;;21.90;10.68;;;;;;;-141.50;100.00;63355.56;4951993;29;20050;-81
2021/12/15 02:53:44;;;;;;;20.58;10.32;;;;;;;-141.50;100.00;63355.56;4951198;29;20079;-80
2021/12/15 02:56:12;;;;;;;20.08;10.68;;;;;;;-141.50;100.00;63355.56;4965920;28;20115;-79
2021/12/15 02:58:47;;;;;;;17.70;9.43;;;;;;;-141.50;100.00;63355.56;4950261;29;20052;-80
2021/12/15 03:01:22;;;;;;;19.90;9.32;;;;;;;-141.50;100.00;63355.56;4949869;29;20052;-81
2021/12/15 03:06:37;;;;;;;17.75;9.45;;;;;;;-141.50;100.00;63355.56;4945578;29;20060;-79
2021/12/15 03:09:34;;;;;;;18.10;9.13;;;;;;;-141.50;100.00;63355.56;4950235;29;20056;-80
2021/12/15 03:17:25;;;;;;;15.52;8.65;;;;;;;-141.50;100.00;63355.56;4950622;29;20103;-81
2021/12/15 03:19:53;;;;;;;18.38;9.35;;;;;;;-141.50;100.00;63355.56;4950502;29;20051;-81
2021/12/15 03:22:20;;;;;;;18.67;9.27;;;;;;;-141.50;100.00;63355.56;4951202;29;20110;-79
2021/12/15 03:24:47;;;;;;;18.42;9.45;;;;;;;-141.50;100.00;63355.56;4952702;29;20056;-79
2021/12/15 03:27:19;;;;;;;14.25;8.20;;;;;;;-141.50;100.00;63355.56;4956667;29;20051;-79
2021/12/15 03:35:33;;;;;;;14.85;7.65;;;;;;;-141.50;100.00;63355.56;4952820;29;20051;-81
2021/12/15 03:38:00;;;;;;;15.23;8.15;;;;;;;-141.50;100.00;63355.56;4952040;29;20103;-80
2021/12/15 03:40:39;;;;;;;13.07;6.53;;;;;;;-141.50;100.00;63355.56;4940655;29;20076;-82
2021/12/15 03:43:10;;;;;;;13.30;7.18;;;;;;;-141.50;100.00;63355.56;4951733;29;20075;-79
2021/12/15 03:45:47;;;;;;;15.73;8.02;;;;;;;-141.50;100.00;63355.56;4952926;29;20055;-81
2021/12/15 03:48:18;;;;;;;16.17;9.25;;;;;;;-141.50;100.00;63355.56;4944875;29;20055;-79
2021/12/15 03:50:45;;;;;;;17.08;9.13;;;;;;;-141.50;100.00;63355.56;4940040;29;20067;-80
2021/12/15 03:53:13;;;;;;;20.08;9.45;;;;;;;-141.50;100.00;63355.56;4955758;29;20051;-81
2021/12/15 03:55:41;;;;;;;19.33;9.15;;;;;;;-141.50;100.00;63355.56;4956243;28;20048;-81
2021/12/15 03:58:11;;;;;;;15.95;9.05;;;;;;;-141.50;100.00;63355.56;4943715;29;20056;-82
2021/12/15 04:00:43;;;;;;;16.35;9.07;;;;;;;-141.50;100.00;63355.56;4961681;28;20095;-81
2021/12/15 04:03:19;;;;;;;18.10;9.55;;;;;;;-141.50;100.00;63355.56;4963406;28;20078;-80
2021/12/15 04:05:46;;;;;;;18.17;9.63;;;;;;;-141.50;100.00;63355.56;4949420;29;20111;-80
2021/12/15 04:08:13;;;;;;;17.05;9.25;;;;;;;-141.50;100.00;63355.56;4948987;29;20052;-81
2021/12/15 04:10:40;;;;;;;14.45;8.35;;;;;;;-141.50;100.00;63355.56;4966882;28;20361;-81
2021/12/15 04:13:09;;;;;;;16.38;8.50;;;;;;;-141.50;100.00;63355.56;4950899;29;20051;-82
2021/12/15 04:15:44;;;;;;;16.27;8.90;;;;;;;-141.50;100.00;63355.56;4950544;29;20048;-80
2021/12/15 04:18:11;;;;;;;15.63;8.68;;;;;;;-141.50;100.00;63355.56;4950451;29;20051;-81
2021/12/15 04:20:39;;;;;;;14.93;8.80;;;;;;;-141.50;100.00;63355.56;4947923;29;20048;-79
2021/12/15 04:23:08;;;;;;;15.18;8.57;;;;;;;-141.50;100.00;63355.56;4949720;29;20056;-81
2021/12/15 04:25:37;;;;;;;13.82;8.52;;;;;;;-141.50;100.00;63355.56;4948587;29;20424;-81
2021/12/15 04:28:10;;;;;;;16.38;8.00;;;;;;;-141.50;100.00;63355.56;4951529;29;20062;-81
2021/12/15 04:30:43;;;;;;;15.48;8.77;;;;;;;-141.50;100.00;63355.56;4935651;29;20180;-80
2021/12/15 04:33:16;;;;;;;16.58;8.75;;;;;;;-141.50;100.00;63355.56;4942659;29;20056;-80
2021/12/15 04:35:43;;;;;;;15.65;8.75;;;;;;;-141.50;100.00;63355.56;4966651;28;20050;-82
2021/12/15 04:38:13;;;;;;;15.45;8.43;;;;;;;-141.50;100.00;63355.56;4949889;29;20047;-80
2021/12/15 04:40:41;;;;;;;14.80;8.30;;;;;;;-141.50;100.00;63355.56;4965120;29;20071;-82
2021/12/15 04:43:08;;;;;;;15.82;8.18;;;;;;;-141.50;100.00;63355.56;4964894;28;20051;-79
2021/12/15 04:45:35;;;;;;;14.45;7.55;;;;;;;-141.50;100.00;63355.56;4948696;29;20048;-80
2021/12/15 04:48:03;;;;;;;13.43;7.63;;;;;;;-141.50;100.00;63355.56;4948924;29;20104;-83
2021/12/15 04:50:30;;;;;;;13.63;7.15;;;;;;;-141.50;100.00;63355.56;4961854;29;20059;-81
2021/12/15 04:53:00;;;;;;;14.52;7.72;;;;;;;-141.50;100.00;63355.56;4931340;29;20051;-82
2021/12/15 04:55:29;;;;;;;15.23;8.13;;;;;;;-141.50;100.00;63355.56;4938121;29;20052;-82
2021/12/15 04:57:57;;;;;;;13.75;7.47;;;;;;;-141.50;100.00;63355.56;4941478;28;20098;-80
2021/12/15 05:00:29;;;;;;;14.00;7.88;;;;;;;-141.50;100.00;63355.56;4943570;29;20058;-82
2021/12/15 05:02:57;;;;;;;11.73;6.90;;;;;;;-141.50;100.00;63355.56;4945495;29;20051;-80
2021/12/15 05:05:26;;;;;;;11.88;7.18;;;;;;;-141.50;100.00;63355.56;4962103;28;20048;-80
2021/12/15 05:07:53;;;;;;;13.00;7.65;;;;;;;-141.50;100.00;63355.56;4946450;29;20054;-81
2021/12/15 05:10:21;;;;;;;10.85;6.70;;;;;;;-141.50;100.00;63355.56;4950123;29;20055;-80
2021/12/15 05:12:49;;;;;;;12.43;7.07;;;;;;;-141.50;100.00;63355.56;4953254;29;20056;-80
2021/12/15 05:15:17;;;;;;;14.57;7.22;;;;;;;-141.50;100.00;63355.56;4953654;29;20055;-79
2021/12/15 05:17:44;;;;;;;15.65;7.60;;;;;;;-141.50;100.00;63355.56;4951438;29;20055;-80
2021/12/15 05:20:12;;;;;;;13.25;7.15;;;;;;;-141.50;100.00;63355.56;4947663;29;20489;-81
2021/12/15 05:22:40;;;;;;;13.07;7.07;;;;;;;-141.50;100.00;63355.56;4957071;29;20055;-80
2021/12/15 05:25:08;;;;;;;12.93;7.50;;;;;;;-141.50;100.00;63355.56;4952821;29;20047;-80
2021/12/15 05:27:36;;;;;;;13.52;6.97;;;;;;;-141.50;100.00;63355.56;4949961;29;20087;-80
2021/12/15 05:30:06;;;;;;;12.18;6.95;;;;;;;-141.50;100.00;63355.56;4948288;29;20056;-80
2021/12/15 05:32:33;;;;;;;13.45;7.07;;;;;;;-141.50;100.00;63355.56;4947640;29;20051;-79
2021/12/15 05:35:00;;;;;;;16.33;7.18;;;;;;;-141.50;100.00;63355.56;4949047;29;20075;-79
2021/12/15 05:37:28;;;;;;;14.68;7.82;;;;;;;-141.50;100.00;63355.56;4948493;29;20052;-82
2021/12/15 05:39:55;;;;;;;17.90;7.85;;;;;;;-141.50;100.00;63355.56;4946849;29;20113;-81
2021/12/15 05:42:24;;;;;;;15.50;7.18;;;;;;;-141.50;100.00;63355.56;4949470;29;20072;-79
2021/12/15 05:44:51;;;;;;;12.40;6.75;;;;;;;-141.50;100.00;63355.56;4948563;29;20056;-82
2021/12/15 05:47:20;;;;;;;16.92;7.60;;;;;;;-141.50;100.00;63355.56;4950315;29;20052;-80
2021/12/15 05:49:48;;;;;;;14.30;7.65;;;;;;;-141.50;100.00;63355.56;4949738;29;20055;-82
2021/12/15 05:52:15;;;;;;;13.00;7.53;;;;;;;-141.50;100.00;63355.56;4954572;29;20141;-81
2021/12/15 05:54:42;;;;;;;12.70;7.00;;;;;;;-141.50;100.00;63355.56;4958328;28;20032;-81
2021/12/15 05:57:08;;;;;;;14.32;7.70;;;;;;;-141.50;100.00;63355.56;4957624;29;20039;-81
2021/12/15 05:59:35;;;;;;;12.20;6.55;;;;;;;-141.50;100.00;63355.56;4953043;29;20051;-80
2021/12/15 06:02:02;;;;;;;13.88;6.72;;;;;;;-141.50;100.00;63355.56;4953054;29;20051;-82
2021/12/15 06:04:29;;;;;;;11.88;6.40;;;;;;;-141.50;100.00;63355.56;4949803;29;20132;-81
2021/12/15 06:06:56;;;;;;;13.50;7.00;;;;;;;-141.50;100.00;63355.56;4967495;29;20056;-81
2021/12/15 06:09:23;;;;;;;13.02;6.68;;;;;;;-141.50;100.00;63355.56;4952635;29;20052;-82
2021/12/15 06:11:52;;;;;;;9.15;5.20;;;;;;;-141.50;100.00;63355.56;4952763;29;20079;-80
2021/12/15 06:14:26;;;;;;;9.75;5.43;;;;;;;-141.50;100.00;63355.56;4952012;29;20075;-79
2021/12/15 06:17:07;;;;;;;11.00;5.95;;;;;;;-141.50;100.00;63355.56;4947717;29;20059;-80
2021/12/15 06:19:33;;;;;;;8.73;4.90;;;;;;;-141.50;100.00;63355.56;4953160;29;20117;-79
2021/12/15 06:22:01;;;;;;;9.98;5.43;;;;;;;-141.50;100.00;63355.56;4966488;29;20048;-79
2021/12/15 06:24:28;;;;;;;9.20;5.05;;;;;;;-141.50;100.00;63355.56;4973273;29;20070;-79
2021/12/15 06:26:57;;;;;;;10.10;5.15;;;;;;;-141.50;100.00;63355.56;4974600;28;20043;-79
2021/12/15 06:29:24;;;;;;;11.60;5.82;;;;;;;-141.50;100.00;63355.56;4938690;29;20524;-81
2021/12/15 06:31:51;;;;;;;9.40;5.20;;;;;;;-141.50;100.00;63355.56;4929606;29;20056;-80
2021/12/15 06:34:18;;;;;;;10.57;5.85;;;;;;;-141.50;100.00;63355.56;4936183;29;20083;-80
2021/12/15 06:36:44;;;;;;;11.82;6.25;;;;;;;-141.50;100.00;63355.56;4935034;29;20082;-80
2021/12/15 06:39:14;;;;;;;11.32;6.45;;;;;;;-141.50;100.00;63355.56;4937763;28;20083;-81
2021/12/15 06:41:41;;;;;;;11.77;6.07;;;;;;;-141.50;100.00;63355.56;4959136;28;20114;-81
2021/12/15 06:44:10;;;;;;;14.77;6.72;;;;;;;-141.50;100.00;63355.56;4966018;28;20039;-80
2021/12/15 07:00:12;;;;;;;11.57;6.13;;;;;;;-141.50;100.00;63355.56;4946209;29;20058;-80
2021/12/15 07:02:40;;;;;;;11.63;6.00;;;;;;;-141.50;100.00;63355.56;4946136;29;20137;-80
2021/12/15 07:05:08;;;;;;;15.02;6.32;;;;;;;-141.50;100.00;63355.56;4945132;29;20058;-79
2021/12/15 07:07:36;;;;;;;12.77;6.22;;;;;;;-141.50;100.00;63355.56;4947932;29;20063;-79
2021/12/15 07:10:05;;;;;;;12.05;6.00;;;;;;;-141.50;100.00;63355.56;4945800;29;20054;-79
2021/12/15 07:12:33;;;;;;;10.00;5.45;;;;;;;-141.50;100.00;63355.56;4966501;29;20471;-79
2021/12/15 07:15:00;;;;;;;10.93;5.72;;;;;;;-141.50;100.00;63355.56;4966585;29;20051;-80
2021/12/15 07:17:28;;;;;;;10.02;5.68;;;;;;;-141.50;100.00;63355.56;4943281;29;20054;-79
2021/12/15 07:22:36;;;;;;;11.07;5.63;;;;;;;-141.50;100.00;63355.56;4957857;29;20051;-79
2021/12/15 07:25:05;;;;;;;11.65;5.82;;;;;;;-141.50;100.00;63355.56;4958373;29;20114;-81
2021/12/15 07:27:32;;;;;;;10.95;5.95;;;;;;;-141.50;100.00;63355.56;4953075;28;20067;-81
2021/12/15 07:30:00;;;;;;;10.90;5.57;;;;;;;-141.50;100.00;63355.56;4940364;29;20615;-80
2021/12/15 07:32:26;;;;;;;10.52;5.28;;;;;;;-141.50;100.00;63355.56;4946602;29;20076;-81
2021/12/15 07:34:53;;;;;;;10.52;5.45;;;;;;;-141.50;100.00;63355.56;4938959;29;20115;-81
2021/12/15 07:37:19;;;;;;;9.32;5.07;;;;;;;-141.50;100.00;63355.56;4948055;28;20512;-80
2021/12/15 07:39:55;;;;;;;11.77;5.72;;;;;;;-141.50;100.00;63355.56;4958218;28;20283;-80
2021/12/15 07:42:31;;;;;;;;;;;;;;;-141.50;100.00;63355.56;4960244;28;20118;-81
2021/12/15 07:44:57;;;;;;;9.93;4.95;;;;;;;-141.50;100.00;63355.56;4941627;29;19922;-80
2021/12/15 07:47:24;;;;;;;10.75;5.40;;;;;;;-141.50;100.00;63355.56;4950121;29;20149;-81
2021/12/15 07:49:50;;;;;;;12.10;6.20;;;;;;;-141.50;100.00;63355.56;4959799;29;20051;-81
2021/12/15 07:52:19;;;;;;;13.07;6.40;;;;;;;-141.50;100.00;63355.56;4957666;29;20047;-84
2021/12/15 07:54:45;;;;;;;12.93;5.45;;;;;;;-141.50;100.00;63355.56;4974244;28;20125;-83
2021/12/15 07:57:17;;;;;;;9.88;5.68;;;;;;;-141.50;100.00;63355.56;4935998;29;20071;-83
2021/12/15 07:59:44;;;;;;;9.13;5.05;;;;;;;-141.50;100.00;63355.56;4944171;29;20051;-84
2021/12/15 08:02:13;;;;;;;9.60;5.55;;;;;;;-141.50;100.00;63355.56;4933999;29;20072;-83
2021/12/15 08:04:40;;;;;;;11.18;5.63;;;;;;;-141.50;100.00;63355.56;4941225;29;20158;-83
2021/12/15 08:07:06;;;;;;;13.15;6.60;;;;;;;-141.50;100.00;63355.56;4940745;29;20063;-81
2021/12/15 08:09:33;;;;;;;11.65;6.50;;;;;;;-141.50;100.00;63355.56;4941799;29;20114;-83
2021/12/15 08:12:00;;;;;;;10.65;5.80;;;;;;;-141.50;100.00;63355.56;4956671;29;20208;-82
2021/12/15 08:14:29;;;;;;;10.05;5.72;;;;;;;-141.50;100.00;63355.56;4941993;29;20048;-81
2021/12/15 08:16:55;;;;;;;7.78;4.82;;;;;;;-141.50;100.00;63355.56;4941557;29;20052;-80
2021/12/15 08:19:22;;;;;;;12.38;6.32;;;;;;;-141.50;100.00;63355.56;4941667;29;20317;-83
2021/12/15 08:21:49;;;;;;;10.82;5.93;;;;;;;-141.50;100.00;63355.56;4942022;29;20048;-83
2021/12/15 08:24:15;;;;;;;11.05;6.18;;;;;;;-141.50;100.00;63355.56;4943305;29;20047;-83
2021/12/15 08:26:42;;;;;;;11.75;5.95;;;;;;;-141.50;100.00;63355.56;4940935;29;20782;-83
2021/12/15 08:29:09;;;;;;;12.90;6.40;;;;;;;-141.50;100.00;63355.56;4940614;29;20076;-82
2021/12/15 08:31:36;;;;;;;12.68;6.40;;;;;;;-141.50;100.00;63355.56;4936793;29;20060;-82
2021/12/15 08:34:03;;;;;;;12.40;6.60;;;;;;;-141.50;100.00;63355.56;4940524;29;20063;-82
2021/12/15 08:36:30;;;;;;;11.52;6.30;;;;;;;-141.50;100.00;63355.56;4941062;29;20117;-83
2021/12/15 08:38:56;;;;;;;10.70;5.72;;;;;;;-141.50;100.00;63355.56;4951003;28;20052;-82
2021/12/15 08:41:25;;;;;;;11.80;5.93;;;;;;;-141.50;100.00;63355.56;4937480;29;20051;-82
2021/12/15 08:43:53;;;;;;;12.32;6.07;;;;;;;-141.50;100.00;63355.56;4946353;29;20062;-81
2021/12/15 08:46:30;;;;;;;11.38;5.50;;;;;;;-141.50;100.00;63355.56;4949577;29;20058;-82
2021/12/15 08:49:00;;;;;;;11.02;5.80;;;;;;;-141.50;100.00;63355.56;4940468;29;20138;-81
2021/12/15 08:51:28;;;;;;;10.32;6.18;;;;;;;-141.50;100.00;63355.56;4921345;29;20044;-83
2021/12/15 08:54:05;;;;;;;11.25;6.22;;;;;;;-141.50;100.00;63355.56;4919458;29;20119;-82
2021/12/15 08:56:33;;;;;;;14.20;6.95;;;;;;;-141.50;100.00;63355.56;4918882;29;20055;-83
2021/12/15 08:59:02;;;;;;;13.18;6.75;;;;;;;-141.50;100.00;63355.56;4919836;29;20052;-81
2021/12/15 09:01:29;;;;;;;11.27;6.40;;;;;;;-141.50;100.00;63355.56;4919737;29;20044;-83
2021/12/15 09:03:56;;;;;;;12.30;6.28;;;;;;;-141.50;100.00;63355.56;4943187;29;20051;-82
2021/12/15 09:06:23;;;;;;;14.25;6.88;;;;;;;-141.50;100.00;63355.56;4960435;28;20086;-83
2021/12/15 09:08:51;;;;;;;13.75;7.05;;;;;;;-141.50;100.00;63355.56;4958208;28;20081;-82
2021/12/15 09:11:21;;;;;;;11.70;6.50;;;;;;;-141.50;100.00;63355.56;4928018;29;20060;-82
2021/12/15 09:13:52;;;;;;;12.90;6.75;;;;;;;-141.50;100.00;63355.56;4956667;28;20052;-82
2021/12/15 09:16:21;;;;;;;11.80;6.68;;;;;;;-141.50;100.00;63355.56;4944554;29;20051;-82
2021/12/15 09:18:50;;;;;;;14.15;7.57;;;;;;;-141.50;100.00;63355.56;4945050;29;20789;-82
2021/12/15 09:21:19;;;;;;;14.77;7.55;;;;;;;-141.50;100.00;63355.56;4945951;29;20079;-83
2021/12/15 09:23:46;;;;;;;16.30;7.38;;;;;;;-141.50;100.00;63355.56;4944956;29;20262;-82
2021/12/15 09:26:14;;;;;;;13.10;6.93;;;;;;;-141.50;100.00;63355.56;4945613;29;20058;-82
2021/12/15 09:28:41;;;;;;;13.05;7.38;;;;;;;-141.50;100.00;63355.56;4948192;29;20167;-81
2021/12/15 09:31:09;;;;;;;14.10;7.50;;;;;;;-141.50;100.00;63355.56;4955979;29;20083;-80
2021/12/15 09:33:38;;;;;;;14.82;7.32;;;;;;;-141.50;100.00;63355.56;4952573;29;20059;-83
2021/12/15 09:36:05;;;;;;;12.30;7.30;;;;;;;-141.50;100.00;63355.56;4947394;29;20410;-82
2021/12/15 09:38:32;;;;;;;14.52;8.07;;;;;;;-141.50;100.00;63355.56;4947094;29;20099;-81
2021/12/15 09:41:04;;;;;;;13.90;7.43;;;;;;;-141.50;100.00;63355.56;4944439;29;20048;-82
2021/12/15 09:43:32;;;;;;;16.20;7.43;;;;;;;-141.50;100.00;63355.56;4939460;29;20152;-80
2021/12/15 10:02:24;;;;;;;13.50;7.90;;;;;;;-141.50;100.00;63355.56;4943284;29;20044;-82
2021/12/15 10:18:45;;;;;;;15.23;7.90;;;;;;;-141.50;100.00;63355.56;4962261;29;20047;-82
2021/12/15 10:21:24;;;;;;;12.68;7.50;;;;;;;-141.50;100.00;63355.56;4944572;28;20051;-82
2021/12/15 10:23:52;;;;;;;15.55;7.90;;;;;;;-141.50;100.00;63355.56;4942566;29;20095;-82
2021/12/15 10:26:21;;;;;;;16.60;7.93;;;;;;;-141.50;100.00;63355.56;4938513;29;20051;-83
2021/12/15 10:28:52;;;;;;;15.10;8.43;;;;;;;-141.50;100.00;63355.56;4949312;29;20062;-82
2021/12/15 10:31:27;;;;;;;15.63;8.15;;;;;;;-141.50;100.00;63355.56;4959976;28;20051;-81
2021/12/15 10:34:03;;;;;;;16.25;8.10;;;;;;;-141.50;100.00;63355.56;4970299;28;20048;-81
2021/12/15 10:36:33;;;;;;;13.27;7.57;;;;;;;-141.50;100.00;63355.56;4972057;29;20287;-81
2021/12/15 10:39:05;;;;;;;13.65;7.70;;;;;;;-141.50;100.00;63355.56;4951297;28;20099;-82
2021/12/15 10:41:37;;;;;;;16.17;8.68;;;;;;;-141.50;100.00;63355.56;4942701;29;20075;-82
2021/12/15 10:44:15;;;;;;;13.50;7.78;;;;;;;-141.50;100.00;63355.56;4942572;29;20068;-82
2021/12/15 10:46:51;;;;;;;16.25;8.68;;;;;;;-141.50;100.00;63355.56;4940330;29;20062;-81
2021/12/15 10:49:29;;;;;;;17.85;9.15;;;;;;;-141.50;100.00;63355.56;4938780;29;20051;-83
2021/12/15 10:51:59;;;;;;;15.18;8.65;;;;;;;-141.50;100.00;63355.56;4944566;29;20059;-81
2021/12/15 10:54:30;;;;;;;16.38;9.43;;;;;;;-141.50;100.00;63355.56;4945005;29;20051;-82
2021/12/15 10:57:01;;;;;;;16.27;9.00;;;;;;;-141.50;100.00;63355.56;4945373;29;20052;-83
2021/12/15 10:59:31;;;;;;;16.52;8.80;;;;;;;-141.50;100.00;63355.56;4940836;29;20056;-83
2021/12/15 11:02:05;;;;;;;15.75;9.40;;;;;;;-141.50;100.00;63355.56;4941591;29;20119;-84
2021/12/15 11:04:32;;;;;;;15.52;9.15;;;;;;;-141.50;100.00;63355.56;4942922;29;20381;-80
2021/12/15 11:07:11;;;;;;;14.98;8.88;;;;;;;-141.50;100.00;63355.56;4946305;29;20082;-81
2021/12/15 11:09:50;;;;;;;18.40;9.70;;;;;;;-141.50;100.00;63355.56;4941600;29;20051;-82
2021/12/15 11:12:23;;;;;;;18.63;9.25;;;;;;;-141.50;100.00;63355.56;4931327;29;20060;-82
2021/12/15 11:14:56;;;;;;;17.88;8.93;;;;;;;-141.50;100.00;63355.56;4938493;29;20055;-81
2021/12/15 11:17:35;;;;;;;17.77;10.38;;;;;;;-141.50;100.00;63355.56;4945646;29;20051;-81
2021/12/15 11:20:34;;;;;;;18.65;10.50;;;;;;;-141.50;100.00;63355.56;4938944;28;20101;-82
2021/12/15 11:23:06;;;;;;;20.30;11.18;;;;;;;-141.50;100.00;63355.56;4940847;29;20059;-81
2021/12/15 11:25:46;;;;;;;22.08;12.57;;;;;;;-141.50;100.00;63355.56;4938573;29;20051;-82
2021/12/15 11:28:33;;;;;;;20.35;11.52;;;;;;;-141.50;100.00;63355.56;4936217;29;20078;-81
2021/12/15 11:31:06;;;;;;;23.73;12.25;;;;;;;-141.50;100.00;63355.56;4934227;29;20051;-82
2021/12/15 11:33:38;;;;;;;22.40;11.82;;;;;;;-141.50;100.00;63355.56;4928672;29;20056;-83
2021/12/15 11:36:12;;;;;;;22.05;11.32;;;;;;;-141.50;100.00;63355.56;4936160;29;20059;-82
2021/12/15 11:38:44;;;;;;;21.05;11.82;;;;;;;-141.50;100.00;63355.56;4958329;28;20090;-81
2021/12/15 11:41:16;;;;;;;23.38;11.85;;;;;;;-141.50;100.00;63355.56;4934557;29;20079;-81
2021/12/15 11:43:50;;;;;;;22.05;12.02;;;;;;;-141.50;100.00;63355.56;4951722;28;20078;-80
2021/12/15 11:46:23;;;;;;;21.17;12.10;;;;;;;-141.50;100.00;63355.56;4936722;29;20055;-80
2021/12/15 11:48:54;;;;;;;21.35;10.60;;;;;;;-141.50;100.00;63355.56;4952346;28;20061;-81
2021/12/15 11:51:39;;;;;;;20.25;11.05;;;;;;;-141.50;100.00;63355.56;4951674;29;20054;-81
2021/12/15 11:54:14;;;;;;;24.38;12.88;;;;;;;-141.50;100.00;63355.56;4943945;29;20044;-83
2021/12/15 11:56:41;;;;;;;23.17;12.93;;;;;;;-141.50;100.00;63355.56;4941276;28;20091;-81
2021/12/15 11:59:19;;;;;;;26.45;14.23;;;;;;;-141.50;100.00;63355.56;4939922;29;20453;-83
2021/12/15 12:02:08;;;;;;;25.48;13.82;;;;;;;-141.50;100.00;63355.56;4940731;29;20063;-81
2021/12/15 12:04:41;;;;;;;24.58;14.77;;;;;;;-141.50;100.00;63355.56;4947244;29;20060;-83
2021/12/15 12:07:24;;;;;;;26.08;15.35;;;;;;;-141.50;100.00;63355.56;4938289;29;20882;-81
2021/12/15 12:10:00;;;;;;;29.60;16.17;;;;;;;-141.50;100.00;63355.56;4928358;29;20059;-81
2021/12/15 12:12:33;;;;;;;;;;;;;;;-141.50;100.00;63355.56;4928641;29;20091;-83
2021/12/15 12:15:00;;;;;;;21.75;12.43;;;;;;;-141.50;100.00;63355.56;4931618;29;19969;-81
2021/12/15 12:17:31;;;;;;;21.25;12.13;;;;;;;-141.50;100.00;63355.56;4937643;29;20062;-82
2021/12/15 12:20:05;;;;;;;17.92;10.68;;;;;;;-141.50;100.00;63355.56;4932719;29;20271;-82
2021/12/15 12:22:37;;;;;;;17.35;10.13;;;;;;;-141.50;100.00;63355.56;4932353;29;20044;-81